Time;durP1;ratioP1;P1;durP2;ratioP2;P2;SDS_P1;SDS_P2;PMS_P1;PMS_P2;Temp;Humidity;BMP_temperature;BMP_pressure;BME280_temperature;BME280_humidity;BME280_pressure;Samples;Min_cycle;Max_cycle;Signal;HPM_P1;HPM_P2
2021/10/04 00:00:34;;;;;;;28.08;15.02;;;;;;;;;;4965280;28;20081;-81
2021/10/04 00:03:01;;;;;;;28.85;15.52;;;;;;;;;;4984745;28;20026;-80
2021/10/04 00:05:29;;;;;;;30.40;15.88;;;;;;;;;;4983042;28;20030;-80
2021/10/04 00:07:58;;;;;;;29.27;15.65;;;;;;;;;;4990819;28;20034;-80
2021/10/04 00:10:25;;;;;;;29.73;15.80;;;;;;;;;;4979496;28;20037;-80
2021/10/04 00:12:52;;;;;;;30.45;14.85;;;;;;;;;;4970034;28;20161;-81
2021/10/04 00:15:20;;;;;;;27.05;13.98;;;;;;;;;;4987457;28;20532;-81
2021/10/04 00:17:47;;;;;;;29.77;15.63;;;;;;;;;;4972176;28;20076;-81
2021/10/04 00:20:14;;;;;;;29.13;15.15;;;;;;;;;;4961979;28;20026;-81
2021/10/04 00:22:40;;;;;;;23.90;13.88;;;;;;;;;;4990115;28;20121;-80
2021/10/04 00:25:07;;;;;;;21.92;11.70;;;;;;;;;;4976150;28;20562;-80
2021/10/04 00:27:34;;;;;;;27.10;13.43;;;;;;;;;;4971775;28;20068;-80
2021/10/04 00:30:09;;;;;;;21.05;11.52;;;;;;;;;;4967271;28;20473;-80
2021/10/04 00:32:36;;;;;;;28.13;13.52;;;;;;;;;;4970428;28;20116;-82
2021/10/04 00:35:04;;;;;;;29.13;13.52;;;;;;;;;;4977220;28;20026;-82
2021/10/04 00:37:30;;;;;;;28.67;13.27;;;;;;;;;;4970298;28;20382;-81
2021/10/04 00:39:57;;;;;;;24.48;13.50;;;;;;;;;;4987611;28;20045;-83
2021/10/04 00:42:26;;;;;;;25.23;12.95;;;;;;;;;;4971002;28;20144;-82
2021/10/04 00:44:53;;;;;;;20.50;11.20;;;;;;;;;;4967150;28;20030;-82
2021/10/04 00:47:21;;;;;;;28.25;12.82;;;;;;;;;;4978025;28;20030;-80
2021/10/04 00:49:48;;;;;;;23.85;11.90;;;;;;;;;;4969142;28;20132;-82
2021/10/04 00:52:16;;;;;;;23.83;11.73;;;;;;;;;;4984083;28;20084;-80
2021/10/04 00:54:42;;;;;;;25.98;12.75;;;;;;;;;;4985098;28;20070;-80
2021/10/04 00:57:10;;;;;;;20.83;10.77;;;;;;;;;;4985471;28;20064;-80
2021/10/04 00:59:36;;;;;;;22.23;11.73;;;;;;;;;;4991465;28;20048;-80
2021/10/04 01:02:02;;;;;;;20.48;10.43;;;;;;;;;;4981686;28;20050;-80
2021/10/04 01:04:30;;;;;;;17.65;9.82;;;;;;;;;;4990640;28;20034;-80
2021/10/04 01:06:59;;;;;;;24.73;10.93;;;;;;;;;;4981276;28;20057;-80
2021/10/04 01:09:27;;;;;;;25.70;10.35;;;;;;;;;;4976614;28;20099;-80
2021/10/04 01:12:03;;;;;;;24.80;11.68;;;;;;;;;;5005507;28;20117;-80
2021/10/04 01:14:31;;;;;;;21.85;11.48;;;;;;;;;;4981745;28;20127;-81
2021/10/04 01:16:57;;;;;;;26.90;12.52;;;;;;;;;;4998438;28;20048;-82
2021/10/04 01:19:26;;;;;;;26.25;12.13;;;;;;;;;;5001914;28;20030;-81
2021/10/04 01:21:54;;;;;;;28.48;13.93;;;;;;;;;;4978393;28;20042;-82
2021/10/04 01:24:23;;;;;;;24.65;12.38;;;;;;;;;;4991660;28;20371;-80
2021/10/04 01:26:52;;;;;;;29.70;13.35;;;;;;;;;;4997288;28;20513;-82
2021/10/04 01:29:20;;;;;;;24.90;12.85;;;;;;;;;;4979498;28;20049;-82
2021/10/04 01:31:49;;;;;;;21.55;10.30;;;;;;;;;;4987509;28;20028;-82
2021/10/04 01:34:26;;;;;;;23.52;9.60;;;;;;;;;;4982582;28;20034;-82
2021/10/04 01:36:53;;;;;;;17.25;8.23;;;;;;;;;;5001435;28;20085;-82
2021/10/04 01:39:20;;;;;;;12.20;6.40;;;;;;;;;;4982324;28;20021;-81
2021/10/04 01:41:46;;;;;;;11.15;4.93;;;;;;;;;;4986833;28;20770;-80
2021/10/04 01:44:15;;;;;;;12.23;4.93;;;;;;;;;;4992101;28;20030;-82
2021/10/04 01:46:42;;;;;;;9.85;4.50;;;;;;;;;;4983811;28;20033;-80
2021/10/04 01:49:09;;;;;;;6.95;2.60;;;;;;;;;;4979419;28;20034;-80
2021/10/04 01:51:35;;;;;;;8.35;2.47;;;;;;;;;;5001357;28;20033;-81
2021/10/04 01:54:03;;;;;;;4.88;1.50;;;;;;;;;;4956046;28;20057;-81
2021/10/04 01:56:30;;;;;;;3.22;1.15;;;;;;;;;;4956748;28;20042;-81
2021/10/04 01:58:58;;;;;;;2.33;0.70;;;;;;;;;;4950672;28;20121;-82
2021/10/04 02:01:24;;;;;;;4.50;1.35;;;;;;;;;;4946503;28;20906;-79
2021/10/04 02:03:56;;;;;;;3.83;1.30;;;;;;;;;;4957712;28;20031;-81
2021/10/04 02:06:22;;;;;;;4.10;1.60;;;;;;;;;;4959725;28;20022;-82
2021/10/04 02:08:50;;;;;;;4.80;1.30;;;;;;;;;;4933461;28;20341;-81
2021/10/04 02:11:16;;;;;;;6.18;1.58;;;;;;;;;;4948527;28;20038;-80
2021/10/04 02:13:45;;;;;;;3.35;1.00;;;;;;;;;;4958796;28;20042;-81
2021/10/04 02:16:16;;;;;;;4.57;1.33;;;;;;;;;;4949456;28;20046;-80
2021/10/04 02:18:47;;;;;;;6.85;1.33;;;;;;;;;;4966548;28;20034;-80
2021/10/04 02:21:15;;;;;;;4.97;1.63;;;;;;;;;;4958580;28;20711;-80
2021/10/04 02:23:44;;;;;;;6.20;1.75;;;;;;;;;;4950394;28;20126;-79
2021/10/04 02:26:12;;;;;;;6.18;1.50;;;;;;;;;;4965659;28;20734;-80
2021/10/04 02:28:38;;;;;;;6.82;2.03;;;;;;;;;;4954391;28;20034;-80
2021/10/04 02:31:06;;;;;;;8.13;2.20;;;;;;;;;;4966932;28;20025;-80
2021/10/04 02:33:33;;;;;;;10.32;2.17;;;;;;;;;;4962365;28;20031;-80
2021/10/04 02:36:01;;;;;;;9.52;2.08;;;;;;;;;;4962522;28;20054;-81
2021/10/04 02:38:28;;;;;;;8.23;1.80;;;;;;;;;;4955004;28;20034;-81
2021/10/04 02:40:55;;;;;;;6.70;2.00;;;;;;;;;;4975451;28;20057;-80
2021/10/04 02:43:26;;;;;;;6.47;1.98;;;;;;;;;;4949303;28;20034;-80
2021/10/04 02:45:54;;;;;;;7.50;1.80;;;;;;;;;;4971275;28;20035;-80
2021/10/04 02:48:23;;;;;;;8.50;2.03;;;;;;;;;;4949189;28;20041;-80
2021/10/04 02:50:49;;;;;;;10.95;2.10;;;;;;;;;;4949244;28;20129;-81
2021/10/04 02:53:17;;;;;;;7.55;2.30;;;;;;;;;;4971153;28;21501;-79
2021/10/04 02:55:44;;;;;;;9.55;1.98;;;;;;;;;;4964733;28;20438;-79
2021/10/04 02:58:10;;;;;;;7.50;1.70;;;;;;;;;;4971090;28;20530;-82
2021/10/04 03:00:40;;;;;;;7.30;2.22;;;;;;;;;;4985830;28;20042;-82
2021/10/04 03:03:07;;;;;;;6.93;1.95;;;;;;;;;;4961744;28;20034;-80
2021/10/04 03:05:37;;;;;;;7.07;2.10;;;;;;;;;;4972912;28;20033;-81
2021/10/04 03:08:05;;;;;;;6.85;1.80;;;;;;;;;;4960105;28;20062;-82
2021/10/04 03:10:33;;;;;;;8.73;2.50;;;;;;;;;;4966183;28;20550;-82
2021/10/04 03:13:02;;;;;;;9.10;2.20;;;;;;;;;;4979196;28;20038;-80
2021/10/04 03:15:30;;;;;;;5.20;1.60;;;;;;;;;;4964015;28;20046;-82
2021/10/04 03:17:59;;;;;;;7.47;1.88;;;;;;;;;;4992495;28;20084;-79
2021/10/04 03:20:26;;;;;;;5.80;1.63;;;;;;;;;;4974560;28;20050;-80
2021/10/04 03:22:54;;;;;;;5.30;1.33;;;;;;;;;;4987126;28;20038;-79
2021/10/04 03:25:21;;;;;;;4.38;1.27;;;;;;;;;;4980936;28;20038;-80
2021/10/04 03:27:47;;;;;;;5.03;1.30;;;;;;;;;;4973136;28;20036;-82
2021/10/04 03:30:15;;;;;;;5.22;1.40;;;;;;;;;;4990750;28;20125;-82
2021/10/04 03:32:43;;;;;;;5.80;1.10;;;;;;;;;;4986237;28;20036;-82
2021/10/04 03:35:10;;;;;;;9.55;1.10;;;;;;;;;;4949380;28;20128;-80
2021/10/04 03:37:38;;;;;;;7.85;0.90;;;;;;;;;;4976328;28;20800;-79
2021/10/04 03:40:07;;;;;;;8.32;1.05;;;;;;;;;;4984406;28;20036;-80
2021/10/04 03:42:35;;;;;;;5.93;0.98;;;;;;;;;;4988356;28;20043;-80
2021/10/04 03:45:06;;;;;;;5.28;0.90;;;;;;;;;;4978422;28;20034;-81
2021/10/04 03:47:35;;;;;;;5.50;0.95;;;;;;;;;;4984698;28;20084;-81
2021/10/04 03:50:02;;;;;;;6.05;0.90;;;;;;;;;;4989486;28;20132;-80
2021/10/04 03:52:29;;;;;;;4.45;1.00;;;;;;;;;;4996759;28;20086;-81
2021/10/04 03:54:55;;;;;;;3.70;0.68;;;;;;;;;;4987279;28;20052;-80
2021/10/04 03:57:21;;;;;;;;;;;;;;;;;;4989640;28;20018;-79
2021/10/04 03:59:48;;;;;;;3.63;0.88;;;;;;;;;;4984608;28;20933;-79
2021/10/04 04:02:16;;;;;;;4.03;0.80;;;;;;;;;;4983825;28;20030;-79
2021/10/04 04:04:45;;;;;;;4.82;0.82;;;;;;;;;;4974759;28;20515;-79
2021/10/04 04:07:12;;;;;;;7.18;0.95;;;;;;;;;;4981080;28;20625;-81
2021/10/04 04:09:38;;;;;;;;;;;;;;;;;;4967089;28;20033;-80
2021/10/04 04:12:06;;;;;;;6.72;1.13;;;;;;;;;;4971141;28;20376;-79
2021/10/04 04:14:32;;;;;;;4.43;0.82;;;;;;;;;;4984889;28;20096;-80
2021/10/04 04:17:01;;;;;;;5.60;0.90;;;;;;;;;;4982046;28;20056;-79
2021/10/04 04:19:28;;;;;;;3.80;0.75;;;;;;;;;;4972867;28;20368;-80
2021/10/04 04:21:59;;;;;;;6.13;0.98;;;;;;;;;;4984167;28;20117;-80
2021/10/04 04:24:28;;;;;;;6.50;0.90;;;;;;;;;;4974643;28;20644;-80
2021/10/04 04:26:57;;;;;;;2.78;0.88;;;;;;;;;;4989947;28;20076;-80
2021/10/04 04:29:26;;;;;;;3.97;0.73;;;;;;;;;;4961063;28;20033;-80
2021/10/04 04:31:54;;;;;;;7.05;0.90;;;;;;;;;;4988731;28;20558;-80
2021/10/04 04:34:21;;;;;;;4.63;0.70;;;;;;;;;;4982356;28;20037;-82
2021/10/04 04:36:51;;;;;;;1.75;0.40;;;;;;;;;;4965582;28;20064;-80
2021/10/04 04:39:17;;;;;;;3.40;0.60;;;;;;;;;;4967156;28;20033;-80
2021/10/04 04:41:49;;;;;;;2.78;0.50;;;;;;;;;;4990048;28;20041;-79
2021/10/04 04:44:16;;;;;;;4.00;0.50;;;;;;;;;;4959472;28;20025;-80
2021/10/04 04:46:42;;;;;;;3.13;0.50;;;;;;;;;;4974010;28;20086;-80
2021/10/04 04:49:09;;;;;;;;;;;;;;;;;;4964925;28;20173;-79
2021/10/04 04:51:38;;;;;;;1.67;0.45;;;;;;;;;;4967935;28;19921;-81
2021/10/04 04:54:07;;;;;;;1.63;0.32;;;;;;;;;;4951473;28;20490;-81
2021/10/04 04:56:33;;;;;;;1.33;0.32;;;;;;;;;;4961710;28;20043;-79
2021/10/04 04:58:59;;;;;;;;;;;;;;;;;;4972591;28;20509;-88
2021/10/04 05:01:28;;;;;;;0.82;0.30;;;;;;;;;;4955320;28;20310;-88
2021/10/04 05:03:58;;;;;;;1.05;0.28;;;;;;;;;;4949367;28;20030;-88
2021/10/04 05:06:26;;;;;;;3.00;0.45;;;;;;;;;;4969723;28;20069;-89
2021/10/04 05:08:52;;;;;;;3.35;0.40;;;;;;;;;;4968906;28;20131;-88
2021/10/04 05:11:18;;;;;;;;;;;;;;;;;;4954901;28;20058;-87
2021/10/04 05:13:45;;;;;;;2.30;0.50;;;;;;;;;;4971888;28;19918;-86
2021/10/04 05:16:13;;;;;;;2.10;0.38;;;;;;;;;;4948302;28;20860;-86
2021/10/04 05:18:39;;;;;;;1.58;0.40;;;;;;;;;;4966219;28;20031;-86
2021/10/04 05:21:05;;;;;;;;;;;;;;;;;;4959251;28;20047;-89
2021/10/04 05:23:34;;;;;;;2.42;0.32;;;;;;;;;;4969808;28;19914;-86
2021/10/04 05:26:00;;;;;;;2.42;0.50;;;;;;;;;;4964895;28;20039;-88
2021/10/04 05:28:27;;;;;;;;;;;;;;;;;;4967910;28;20477;-88
2021/10/04 05:30:54;;;;;;;5.25;0.95;;;;;;;;;;4981049;28;19925;-89
2021/10/04 05:33:20;;;;;;;7.03;1.30;;;;;;;;;;4936609;28;20038;-87
2021/10/04 05:35:46;;;;;;;;;;;;;;;;;;4967632;28;20027;-85
2021/10/04 05:38:14;;;;;;;10.65;1.63;;;;;;;;;;4962043;28;19972;-85
2021/10/04 05:40:42;;;;;;;4.75;1.30;;;;;;;;;;4953163;28;20053;-85
2021/10/04 05:43:09;;;;;;;5.88;1.17;;;;;;;;;;4949699;28;20040;-85
2021/10/04 05:45:37;;;;;;;6.93;1.60;;;;;;;;;;4943035;28;20042;-85
2021/10/04 05:48:03;;;;;;;4.93;1.00;;;;;;;;;;4957665;28;20041;-85
2021/10/04 05:50:30;;;;;;;6.10;1.30;;;;;;;;;;4970663;28;20039;-85
2021/10/04 05:52:59;;;;;;;6.43;1.40;;;;;;;;;;4947918;28;20121;-84
2021/10/04 05:55:27;;;;;;;9.45;1.38;;;;;;;;;;4963004;28;20105;-86
2021/10/04 05:57:55;;;;;;;8.10;1.77;;;;;;;;;;4971186;28;20031;-85
2021/10/04 06:00:24;;;;;;;6.18;1.40;;;;;;;;;;4958936;28;20027;-85
2021/10/04 06:02:53;;;;;;;7.88;1.42;;;;;;;;;;4969363;28;20042;-86
2021/10/04 06:05:19;;;;;;;12.98;1.52;;;;;;;;;;4976639;28;20052;-86
2021/10/04 06:07:49;;;;;;;10.57;1.50;;;;;;;;;;4972647;28;20073;-86
2021/10/04 06:10:17;;;;;;;9.95;1.60;;;;;;;;;;4959303;28;20030;-86
2021/10/04 06:12:57;;;;;;;7.43;1.40;;;;;;;;;;4965779;28;20390;-86
2021/10/04 06:15:27;;;;;;;6.13;1.33;;;;;;;;;;4970531;28;20031;-86
2021/10/04 06:17:55;;;;;;;9.10;2.28;;;;;;;;;;4962960;28;20046;-86
2021/10/04 06:20:24;;;;;;;8.63;1.58;;;;;;;;;;4947908;28;20034;-85
2021/10/04 06:22:52;;;;;;;8.63;1.45;;;;;;;;;;4948499;28;20026;-86
2021/10/04 06:25:20;;;;;;;7.03;1.50;;;;;;;;;;4947257;28;20034;-86
2021/10/04 06:27:50;;;;;;;9.43;1.60;;;;;;;;;;4965930;28;20043;-85
2021/10/04 06:30:18;;;;;;;9.40;1.70;;;;;;;;;;4944214;28;21704;-86
2021/10/04 06:32:44;;;;;;;11.00;2.40;;;;;;;;;;4949636;28;20129;-85
2021/10/04 06:35:13;;;;;;;6.88;1.40;;;;;;;;;;4961632;28;20056;-85
2021/10/04 06:37:40;;;;;;;9.98;1.67;;;;;;;;;;4962085;28;20056;-86
2021/10/04 06:40:08;;;;;;;;;;;;;;;;;;4958918;28;20392;-86
2021/10/04 06:42:38;;;;;;;9.07;1.58;;;;;;;;;;4970844;28;19920;-86
2021/10/04 06:45:05;;;;;;;9.55;1.80;;;;;;;;;;4962633;28;20026;-86
2021/10/04 06:47:33;;;;;;;12.73;2.03;;;;;;;;;;4949761;28;20022;-84
2021/10/04 06:50:02;;;;;;;11.00;2.35;;;;;;;;;;4964691;28;20042;-85
2021/10/04 06:52:30;;;;;;;14.30;2.33;;;;;;;;;;4966707;28;20039;-86
2021/10/04 06:54:59;;;;;;;15.45;2.88;;;;;;;;;;4960694;28;20059;-85
2021/10/04 06:57:26;;;;;;;13.15;2.50;;;;;;;;;;4994354;28;20034;-85
2021/10/04 06:59:53;;;;;;;14.85;2.75;;;;;;;;;;4998554;28;20033;-86
2021/10/04 07:02:22;;;;;;;13.70;3.25;;;;;;;;;;4981546;28;20022;-85
2021/10/04 07:04:48;;;;;;;15.02;2.53;;;;;;;;;;4986504;28;20062;-86
2021/10/04 07:07:15;;;;;;;12.65;2.60;;;;;;;;;;4981317;28;20062;-86
2021/10/04 07:09:43;;;;;;;12.60;2.78;;;;;;;;;;4986772;28;20653;-85
2021/10/04 07:12:11;;;;;;;16.40;2.90;;;;;;;;;;4987231;28;21294;-86
2021/10/04 07:14:39;;;;;;;12.25;2.40;;;;;;;;;;4988761;28;20042;-86
2021/10/04 07:17:07;;;;;;;15.93;4.40;;;;;;;;;;4983936;28;20046;-86
2021/10/04 07:19:34;;;;;;;15.95;4.30;;;;;;;;;;4994821;28;20364;-86
2021/10/04 07:22:03;;;;;;;18.60;5.50;;;;;;;;;;4987371;28;20030;-86
2021/10/04 07:24:29;;;;;;;14.90;3.70;;;;;;;;;;4989262;28;20022;-86
2021/10/04 07:26:55;;;;;;;;;;;;;;;;;;5002267;28;20026;-86
2021/10/04 07:29:23;;;;;;;14.57;3.17;;;;;;;;;;4986359;28;19913;-86
2021/10/04 07:31:49;;;;;;;19.50;5.47;;;;;;;;;;5012254;28;20041;-86
2021/10/04 07:34:17;;;;;;;26.15;8.27;;;;;;;;;;5007233;28;20041;-86
2021/10/04 07:36:45;;;;;;;20.48;5.57;;;;;;;;;;4987329;28;20145;-86
2021/10/04 07:39:15;;;;;;;17.40;5.47;;;;;;;;;;4993756;28;20481;-86
2021/10/04 07:41:46;;;;;;;20.17;6.85;;;;;;;;;;4987584;28;20049;-86
2021/10/04 07:44:13;;;;;;;14.60;4.03;;;;;;;;;;4981877;28;20023;-88
2021/10/04 07:46:41;;;;;;;13.40;3.20;;;;;;;;;;4999645;28;20104;-87
2021/10/04 07:49:08;;;;;;;12.85;2.45;;;;;;;;;;4982167;28;20100;-87
2021/10/04 07:51:36;;;;;;;11.30;2.17;;;;;;;;;;4994379;28;20022;-85
2021/10/04 07:54:04;;;;;;;12.52;2.22;;;;;;;;;;4991283;28;20061;-86
2021/10/04 07:56:31;;;;;;;11.63;1.98;;;;;;;;;;4986275;28;20497;-85
2021/10/04 07:59:00;;;;;;;11.40;2.45;;;;;;;;;;5009909;28;20034;-88
2021/10/04 08:01:27;;;;;;;11.80;2.20;;;;;;;;;;4989031;28;20800;-86
2021/10/04 08:03:57;;;;;;;10.60;2.00;;;;;;;;;;4993252;28;20491;-85
2021/10/04 08:06:32;;;;;;;12.05;2.30;;;;;;;;;;4991961;28;20029;-86
2021/10/04 08:09:00;;;;;;;11.90;2.22;;;;;;;;;;4991650;28;20096;-87
2021/10/04 08:11:28;;;;;;;11.70;2.05;;;;;;;;;;5004432;28;20072;-86
2021/10/04 08:13:55;;;;;;;24.75;3.05;;;;;;;;;;4991581;28;20114;-84
2021/10/04 08:16:22;;;;;;;15.20;1.88;;;;;;;;;;4982658;28;20115;-82
2021/10/04 08:18:59;;;;;;;18.48;3.15;;;;;;;;;;4986089;28;20033;-83
2021/10/04 08:21:26;;;;;;;5.57;1.00;;;;;;;;;;4989275;28;20979;-84
2021/10/04 08:23:52;;;;;;;6.32;1.08;;;;;;;;;;4987979;28;20063;-82
2021/10/04 08:26:19;;;;;;;7.38;1.23;;;;;;;;;;4983687;28;20766;-84
2021/10/04 08:28:45;;;;;;;4.88;1.17;;;;;;;;;;5002227;28;20030;-79
2021/10/04 08:31:13;;;;;;;8.70;1.20;;;;;;;;;;4980678;28;20049;-79
2021/10/04 08:33:41;;;;;;;5.22;0.90;;;;;;;;;;4987559;28;20043;-79
2021/10/04 08:36:19;;;;;;;;;;;;;;;;;;;;;
2021/10/04 08:38:47;;;;;;;6.90;1.90;;;;;;;;;;4979589;28;20040;-79
2021/10/04 08:41:15;;;;;;;6.43;1.60;;;;;;;;;;4984332;28;20105;-78
2021/10/04 08:43:43;;;;;;;6.47;1.02;;;;;;;;;;4984729;28;20129;-78
2021/10/04 08:46:12;;;;;;;2.78;0.75;;;;;;;;;;4979955;28;20022;-78
2021/10/04 08:48:40;;;;;;;2.17;0.73;;;;;;;;;;4984331;28;20050;-78
2021/10/04 08:51:10;;;;;;;3.17;0.80;;;;;;;;;;4978850;28;20137;-79
2021/10/04 08:53:37;;;;;;;4.32;1.02;;;;;;;;;;4986476;28;20065;-79
2021/10/04 08:56:04;;;;;;;4.40;1.13;;;;;;;;;;4961284;28;20784;-79
2021/10/04 08:58:35;;;;;;;4.47;0.95;;;;;;;;;;4949504;28;20073;-80
2021/10/04 09:01:04;;;;;;;6.82;1.08;;;;;;;;;;4968889;28;20032;-78
2021/10/04 09:03:46;;;;;;;8.15;1.08;;;;;;;;;;4953919;28;20617;-79
2021/10/04 09:06:35;;;;;;;2.70;0.57;;;;;;;;;;4940650;28;20117;-79
2021/10/04 09:09:04;;;;;;;5.72;0.70;;;;;;;;;;4968198;28;20079;-79
2021/10/04 09:11:49;;;;;;;4.47;0.90;;;;;;;;;;4964416;28;20038;-80
2021/10/04 09:14:18;;;;;;;2.15;0.60;;;;;;;;;;4952845;28;23085;-79
2021/10/04 09:16:54;;;;;;;4.13;0.90;;;;;;;;;;4970488;28;20121;-79
2021/10/04 09:19:24;;;;;;;5.95;0.90;;;;;;;;;;4948713;28;20391;-80
2021/10/04 09:22:09;;;;;;;4.82;0.70;;;;;;;;;;4947691;28;20040;-80
2021/10/04 09:24:40;;;;;;;4.30;0.80;;;;;;;;;;4954656;28;20035;-80
2021/10/04 09:27:25;;;;;;;8.75;1.45;;;;;;;;;;4947957;28;20038;-80
2021/10/04 09:29:52;;;;;;;8.98;1.55;;;;;;;;;;4960031;28;20027;-80
2021/10/04 09:32:37;;;;;;;5.22;0.65;;;;;;;;;;4969309;28;20796;-80
2021/10/04 09:35:16;;;;;;;2.92;0.70;;;;;;;;;;4942987;28;20620;-79
2021/10/04 09:37:46;;;;;;;2.92;0.57;;;;;;;;;;4961545;28;20070;-81
2021/10/04 09:40:32;;;;;;;6.03;0.90;;;;;;;;;;4951806;28;20125;-81
2021/10/04 09:43:02;;;;;;;3.78;0.93;;;;;;;;;;4947992;28;20365;-80
2021/10/04 09:45:29;;;;;;;3.67;0.98;;;;;;;;;;4960309;28;20042;-80
2021/10/04 09:48:08;;;;;;;4.40;0.80;;;;;;;;;;4954310;28;20061;-81
2021/10/04 09:50:35;;;;;;;4.15;0.80;;;;;;;;;;4958658;28;20450;-81
2021/10/04 09:53:04;;;;;;;3.10;0.50;;;;;;;;;;4947643;28;20067;-81
2021/10/04 09:55:44;;;;;;;5.40;0.60;;;;;;;;;;4982542;28;20114;-81
2021/10/04 09:58:18;;;;;;;4.65;0.70;;;;;;;;;;4964449;28;20041;-81
2021/10/04 10:01:14;;;;;;;5.50;1.10;;;;;;;;;;4982653;28;20143;-81
2021/10/04 10:03:43;;;;;;;3.10;0.75;;;;;;;;;;4910765;28;20106;-81
2021/10/04 10:06:11;;;;;;;3.47;0.80;;;;;;;;;;4904760;28;20032;-81
2021/10/04 10:08:38;;;;;;;4.93;1.08;;;;;;;;;;4908741;29;20138;-81
2021/10/04 10:11:31;;;;;;;3.75;0.95;;;;;;;;;;4919314;28;20188;-81
2021/10/04 10:14:00;;;;;;;3.05;0.75;;;;;;;;;;4916204;28;20066;-81
2021/10/04 10:16:50;;;;;;;2.75;0.90;;;;;;;;;;4923115;28;20027;-81
2021/10/04 10:19:22;;;;;;;7.10;0.93;;;;;;;;;;4920346;28;20138;-82
2021/10/04 10:21:50;;;;;;;7.40;1.00;;;;;;;;;;4907511;28;20907;-79
2021/10/04 10:24:30;;;;;;;3.78;0.80;;;;;;;;;;4921210;28;22603;-80
2021/10/04 10:27:03;;;;;;;6.07;1.05;;;;;;;;;;4905172;29;20121;-80
2021/10/04 10:29:30;;;;;;;4.10;0.85;;;;;;;;;;4924888;28;20031;-80
2021/10/04 10:31:59;;;;;;;4.43;0.90;;;;;;;;;;4923435;28;20031;-80
2021/10/04 10:34:28;;;;;;;4.97;1.00;;;;;;;;;;4937528;28;20211;-80
2021/10/04 10:37:17;;;;;;;4.72;0.95;;;;;;;;;;4934069;28;20704;-82
2021/10/04 10:39:51;;;;;;;4.25;0.95;;;;;;;;;;4949485;28;20049;-79
2021/10/04 10:42:29;;;;;;;5.22;1.10;;;;;;;;;;4978838;28;20026;-79
2021/10/04 10:44:56;;;;;;;3.97;0.90;;;;;;;;;;4992004;28;20032;-80
2021/10/04 10:47:37;;;;;;;2.20;0.70;;;;;;;;;;4988311;28;20037;-80
2021/10/04 10:50:12;;;;;;;3.72;1.00;;;;;;;;;;4997548;28;20205;-80
2021/10/04 10:53:01;;;;;;;3.78;0.93;;;;;;;;;;4996936;28;20032;-80
2021/10/04 10:55:35;;;;;;;6.55;1.98;;;;;;;;;;4985923;28;20140;-79
2021/10/04 10:58:04;;;;;;;5.72;1.20;;;;;;;;;;4988450;28;20400;-80
2021/10/04 11:00:33;;;;;;;4.70;1.30;;;;;;;;;;4982169;28;20672;-80
2021/10/04 11:03:19;;;;;;;6.00;1.65;;;;;;;;;;4990810;28;20574;-80
2021/10/04 11:05:54;;;;;;;6.40;1.50;;;;;;;;;;4983721;28;20046;-80
2021/10/04 11:08:32;;;;;;;3.23;0.80;;;;;;;;;;4971259;28;20030;-80
2021/10/04 11:10:58;;;;;;;3.47;0.80;;;;;;;;;;4992310;28;20497;-81
2021/10/04 11:13:30;;;;;;;2.88;0.90;;;;;;;;;;4968151;28;20070;-81
2021/10/04 11:15:58;;;;;;;2.53;0.75;;;;;;;;;;4986020;28;20111;-80
2021/10/04 11:18:38;;;;;;;4.85;0.85;;;;;;;;;;4974563;28;20030;-80
2021/10/04 11:21:08;;;;;;;5.47;0.90;;;;;;;;;;4966738;28;20053;-81
2021/10/04 11:23:41;;;;;;;4.97;0.95;;;;;;;;;;4967660;28;20022;-80
2021/10/04 11:26:12;;;;;;;3.47;0.93;;;;;;;;;;4959274;28;20745;-81
2021/10/04 11:28:44;;;;;;;2.45;0.63;;;;;;;;;;4972018;28;20034;-81
2021/10/04 11:31:11;;;;;;;3.28;0.80;;;;;;;;;;4990469;28;20038;-81
2021/10/04 11:33:40;;;;;;;3.40;1.00;;;;;;;;;;4973617;28;20093;-80
2021/10/04 11:36:11;;;;;;;4.13;1.05;;;;;;;;;;4979419;28;20038;-80
2021/10/04 11:38:39;;;;;;;7.90;1.80;;;;;;;;;;4996072;28;20083;-79
2021/10/04 11:41:06;;;;;;;14.60;1.42;;;;;;;;;;4980285;28;20031;-77
2021/10/04 11:43:36;;;;;;;6.75;1.40;;;;;;;;;;4972760;28;20080;-78
2021/10/04 11:46:14;;;;;;;7.90;2.00;;;;;;;;;;4981488;28;20120;-80
2021/10/04 11:48:41;;;;;;;7.45;1.75;;;;;;;;;;4971093;28;20033;-79
2021/10/04 11:51:10;;;;;;;7.72;1.80;;;;;;;;;;4978863;28;20037;-79
2021/10/04 11:53:39;;;;;;;7.82;1.52;;;;;;;;;;4975556;28;20634;-78
2021/10/04 11:56:08;;;;;;;6.20;1.60;;;;;;;;;;4972400;28;20058;-78
2021/10/04 11:58:35;;;;;;;6.53;1.70;;;;;;;;;;4987099;28;20034;-78
2021/10/04 12:01:02;;;;;;;3.45;1.00;;;;;;;;;;4991953;28;20092;-79
2021/10/04 12:03:33;;;;;;;4.95;1.20;;;;;;;;;;4983848;28;20350;-79
2021/10/04 12:06:00;;;;;;;4.53;1.00;;;;;;;;;;4989282;28;20029;-89
2021/10/04 12:08:35;;;;;;;7.38;2.20;;;;;;;;;;4988955;28;20056;-79
2021/10/04 12:11:07;;;;;;;6.45;1.40;;;;;;;;;;4977561;28;20026;-80
2021/10/04 12:13:40;;;;;;;6.78;1.80;;;;;;;;;;4988483;28;20034;-80
2021/10/04 12:16:11;;;;;;;5.22;1.30;;;;;;;;;;4979909;28;20485;-79
2021/10/04 12:18:48;;;;;;;5.95;1.70;;;;;;;;;;4983781;28;20030;-79
2021/10/04 12:21:17;;;;;;;5.00;1.13;;;;;;;;;;4979335;28;20091;-80
2021/10/04 12:23:45;;;;;;;5.43;1.58;;;;;;;;;;4983852;28;20023;-81
2021/10/04 12:26:12;;;;;;;4.05;0.90;;;;;;;;;;4979179;28;20034;-80
2021/10/04 12:28:46;;;;;;;4.30;1.10;;;;;;;;;;4980989;28;20100;-80
2021/10/04 12:31:31;;;;;;;4.75;1.40;;;;;;;;;;4981316;28;20035;-80
2021/10/04 12:34:00;;;;;;;8.88;1.50;;;;;;;;;;4985217;28;20107;-80
2021/10/04 12:36:28;;;;;;;5.95;1.40;;;;;;;;;;4982287;28;20026;-80
2021/10/04 12:38:58;;;;;;;6.55;1.75;;;;;;;;;;4979064;28;20124;-80
2021/10/04 12:41:41;;;;;;;5.53;1.42;;;;;;;;;;4969693;28;20053;-80
2021/10/04 12:44:27;;;;;;;8.70;1.80;;;;;;;;;;4982578;28;20034;-80
2021/10/04 12:47:21;;;;;;;6.53;1.45;;;;;;;;;;4986266;28;20048;-80
2021/10/04 12:49:59;;;;;;;6.40;1.58;;;;;;;;;;4978158;28;20050;-81
2021/10/04 12:52:31;;;;;;;5.38;1.20;;;;;;;;;;4990494;28;20395;-80
2021/10/04 12:54:59;;;;;;;5.88;1.23;;;;;;;;;;4983814;28;20046;-80
2021/10/04 12:57:31;;;;;;;5.80;1.45;;;;;;;;;;4981708;28;20030;-80
2021/10/04 13:00:08;;;;;;;6.55;1.50;;;;;;;;;;5003238;28;20030;-79
2021/10/04 13:02:36;;;;;;;7.00;1.65;;;;;;;;;;4989207;28;20034;-80
2021/10/04 13:05:11;;;;;;;6.40;1.13;;;;;;;;;;4981871;28;20065;-82
2021/10/04 13:07:39;;;;;;;3.55;0.98;;;;;;;;;;4990948;28;20930;-79
2021/10/04 13:10:07;;;;;;;4.07;0.70;;;;;;;;;;4982046;28;20131;-80
2021/10/04 13:12:34;;;;;;;3.92;0.80;;;;;;;;;;4988456;28;20034;-82
2021/10/04 13:15:00;;;;;;;2.95;0.70;;;;;;;;;;4989269;28;20053;-80
2021/10/04 13:17:28;;;;;;;5.28;0.80;;;;;;;;;;4994111;28;20057;-80
2021/10/04 13:19:54;;;;;;;3.50;0.47;;;;;;;;;;4992886;28;20189;-80
2021/10/04 13:22:21;;;;;;;1.25;0.40;;;;;;;;;;4989048;28;20040;-80
2021/10/04 13:24:50;;;;;;;1.95;0.40;;;;;;;;;;4988213;28;20077;-82
2021/10/04 13:27:27;;;;;;;1.83;0.57;;;;;;;;;;4990716;28;20112;-82
2021/10/04 13:29:54;;;;;;;3.88;1.10;;;;;;;;;;4986365;28;20124;-82
2021/10/04 13:32:22;;;;;;;4.35;1.00;;;;;;;;;;4987200;28;20026;-82
2021/10/04 13:34:51;;;;;;;3.75;0.95;;;;;;;;;;5001173;28;20024;-81
2021/10/04 13:37:23;;;;;;;4.03;0.65;;;;;;;;;;4977809;28;20038;-81
2021/10/04 13:39:50;;;;;;;4.10;0.75;;;;;;;;;;4988317;28;20602;-82
2021/10/04 13:42:18;;;;;;;4.32;0.70;;;;;;;;;;4983821;28;20038;-81
2021/10/04 13:44:46;;;;;;;3.75;0.90;;;;;;;;;;4985077;28;20088;-81
2021/10/04 13:47:13;;;;;;;3.92;0.95;;;;;;;;;;4990453;28;20065;-81
2021/10/04 13:49:39;;;;;;;2.90;0.80;;;;;;;;;;4986185;28;20370;-82
2021/10/04 13:52:06;;;;;;;3.80;0.82;;;;;;;;;;4981876;28;20421;-82
2021/10/04 13:54:33;;;;;;;5.43;0.90;;;;;;;;;;4989881;28;20445;-82
2021/10/04 13:57:01;;;;;;;5.50;1.30;;;;;;;;;;4980781;28;20045;-81
2021/10/04 13:59:29;;;;;;;5.95;1.50;;;;;;;;;;4967967;28;20034;-80
2021/10/04 14:01:58;;;;;;;8.02;1.67;;;;;;;;;;4968281;28;20049;-82
2021/10/04 14:04:26;;;;;;;7.63;1.35;;;;;;;;;;4964246;28;20033;-83
2021/10/04 14:06:53;;;;;;;7.28;1.40;;;;;;;;;;4957014;28;20037;-81
2021/10/04 14:09:19;;;;;;;8.48;1.55;;;;;;;;;;4975504;28;20033;-80
2021/10/04 14:11:47;;;;;;;11.20;2.05;;;;;;;;;;4971854;28;20025;-81
2021/10/04 14:14:17;;;;;;;8.00;1.77;;;;;;;;;;4977293;28;20062;-81
2021/10/04 14:16:45;;;;;;;7.65;1.58;;;;;;;;;;4982570;28;20030;-81
2021/10/04 14:19:12;;;;;;;9.77;2.00;;;;;;;;;;4984276;28;20117;-82
2021/10/04 14:21:38;;;;;;;9.90;1.83;;;;;;;;;;4984290;28;20030;-80
2021/10/04 14:24:05;;;;;;;12.88;2.20;;;;;;;;;;4979519;28;20034;-80
2021/10/04 14:26:32;;;;;;;12.15;2.80;;;;;;;;;;4967431;28;20046;-79
2021/10/04 14:28:59;;;;;;;9.57;1.92;;;;;;;;;;4984046;28;20025;-80
2021/10/04 14:31:25;;;;;;;10.43;1.88;;;;;;;;;;4981185;28;20065;-80
2021/10/04 14:33:54;;;;;;;14.27;2.30;;;;;;;;;;4984967;28;20050;-81
2021/10/04 14:36:20;;;;;;;13.63;2.38;;;;;;;;;;4978135;28;20028;-81
2021/10/04 14:38:51;;;;;;;12.50;2.10;;;;;;;;;;4984979;28;20042;-80
2021/10/04 14:41:20;;;;;;;14.55;2.60;;;;;;;;;;4963613;28;20089;-79
2021/10/04 14:43:53;;;;;;;13.75;2.67;;;;;;;;;;4968361;28;20026;-80
2021/10/04 14:46:21;;;;;;;11.65;2.05;;;;;;;;;;4981883;28;20025;-78
2021/10/04 14:48:50;;;;;;;13.15;2.70;;;;;;;;;;4984491;28;20034;-79
2021/10/04 14:51:19;;;;;;;13.18;2.53;;;;;;;;;;4964385;28;20046;-79
2021/10/04 14:53:47;;;;;;;14.32;2.67;;;;;;;;;;4961572;28;20069;-79